Terminal Aerodrome Forecast
Issued by NWS Detroit/Pontiac, MI

Home | Current Version | Previous Version | Text Only | Print | Product List | Glossary On
Versions: 1 2 3 4 5 6 7 8 9 10 11 12 13 14 15
000
FTUS43 KDTX 181200 AAA
TAFFNT
TAF AMD
KFNT 181225Z 1812/1912 VRB04KT 3SM -RA BR OVC060
     FM181500 30006KT 3SM BR OVC060
     FM181600 30006KT P6SM BKN060
     FM181900 30008KT P6SM SCT050
     FM190100 VRB04KT P6SM SKC=

USA.gov is the U.S. government's official web portal to all federal, state and local government web resources and services.